sensor_id;sensor_type;location;lat;lon;timestamp;P1;durP1;ratioP1;P2;durP2;ratioP2
12332;SDS011;6232;48.094;11.288;2023-07-08T00:02:23;8.97;;;6.40;;
12332;SDS011;6232;48.094;11.288;2023-07-08T00:05:09;9.40;;;7.20;;
12332;SDS011;6232;48.094;11.288;2023-07-08T00:07:55;11.13;;;6.20;;
12332;SDS011;6232;48.094;11.288;2023-07-08T00:10:41;14.67;;;6.40;;
12332;SDS011;6232;48.094;11.288;2023-07-08T00:13:27;11.70;;;6.90;;
12332;SDS011;6232;48.094;11.288;2023-07-08T00:16:13;12.30;;;6.60;;
12332;SDS011;6232;48.094;11.288;2023-07-08T00:18:59;11.30;;;7.07;;
12332;SDS011;6232;48.094;11.288;2023-07-08T00:21:45;13.13;;;6.73;;
12332;SDS011;6232;48.094;11.288;2023-07-08T00:24:31;9.60;;;5.93;;
12332;SDS011;6232;48.094;11.288;2023-07-08T00:27:16;12.50;;;7.17;;
12332;SDS011;6232;48.094;11.288;2023-07-08T00:30:07;11.77;;;7.10;;
12332;SDS011;6232;48.094;11.288;2023-07-08T00:32:55;10.50;;;6.37;;
12332;SDS011;6232;48.094;11.288;2023-07-08T00:35:41;13.03;;;7.87;;
12332;SDS011;6232;48.094;11.288;2023-07-08T00:38:27;12.10;;;6.83;;
12332;SDS011;6232;48.094;11.288;2023-07-08T00:41:18;9.93;;;6.43;;
12332;SDS011;6232;48.094;11.288;2023-07-08T00:44:10;11.67;;;7.13;;
12332;SDS011;6232;48.094;11.288;2023-07-08T00:47:03;13.50;;;6.57;;
12332;SDS011;6232;48.094;11.288;2023-07-08T00:49:54;11.23;;;6.37;;
12332;SDS011;6232;48.094;11.288;2023-07-08T00:52:41;10.33;;;7.33;;
12332;SDS011;6232;48.094;11.288;2023-07-08T00:55:27;9.67;;;6.40;;
12332;SDS011;6232;48.094;11.288;2023-07-08T00:58:13;12.17;;;7.60;;
12332;SDS011;6232;48.094;11.288;2023-07-08T01:00:58;9.83;;;6.20;;
12332;SDS011;6232;48.094;11.288;2023-07-08T01:03:47;9.93;;;6.13;;
12332;SDS011;6232;48.094;11.288;2023-07-08T01:06:35;8.50;;;5.57;;
12332;SDS011;6232;48.094;11.288;2023-07-08T01:09:30;10.90;;;6.90;;
12332;SDS011;6232;48.094;11.288;2023-07-08T01:12:18;11.90;;;7.03;;
12332;SDS011;6232;48.094;11.288;2023-07-08T01:15:05;14.37;;;6.97;;
12332;SDS011;6232;48.094;11.288;2023-07-08T01:17:51;12.93;;;6.77;;
12332;SDS011;6232;48.094;11.288;2023-07-08T01:20:39;9.97;;;6.57;;
12332;SDS011;6232;48.094;11.288;2023-07-08T01:23:25;9.70;;;6.87;;
12332;SDS011;6232;48.094;11.288;2023-07-08T01:26:10;12.03;;;6.97;;
12332;SDS011;6232;48.094;11.288;2023-07-08T01:28:56;9.83;;;6.10;;
12332;SDS011;6232;48.094;11.288;2023-07-08T01:31:41;10.57;;;7.30;;
12332;SDS011;6232;48.094;11.288;2023-07-08T01:34:33;16.43;;;7.53;;
12332;SDS011;6232;48.094;11.288;2023-07-08T01:37:21;9.90;;;6.80;;
12332;SDS011;6232;48.094;11.288;2023-07-08T01:43:02;9.90;;;7.37;;
12332;SDS011;6232;48.094;11.288;2023-07-08T01:45:48;13.23;;;6.77;;
12332;SDS011;6232;48.094;11.288;2023-07-08T01:48:36;8.03;;;6.10;;
12332;SDS011;6232;48.094;11.288;2023-07-08T01:51:24;11.47;;;7.80;;
12332;SDS011;6232;48.094;11.288;2023-07-08T01:54:11;11.40;;;7.10;;
12332;SDS011;6232;48.094;11.288;2023-07-08T01:56:57;9.80;;;6.70;;
12332;SDS011;6232;48.094;11.288;2023-07-08T01:59:42;9.87;;;7.00;;
12332;SDS011;6232;48.094;11.288;2023-07-08T02:02:28;9.87;;;6.40;;
12332;SDS011;6232;48.094;11.288;2023-07-08T02:05:14;16.90;;;7.67;;
12332;SDS011;6232;48.094;11.288;2023-07-08T02:07:59;11.03;;;7.33;;
12332;SDS011;6232;48.094;11.288;2023-07-08T02:10:48;9.93;;;6.10;;
12332;SDS011;6232;48.094;11.288;2023-07-08T02:13:34;11.10;;;6.80;;
12332;SDS011;6232;48.094;11.288;2023-07-08T02:16:19;10.03;;;6.87;;
12332;SDS011;6232;48.094;11.288;2023-07-08T02:19:05;13.47;;;7.03;;
12332;SDS011;6232;48.094;11.288;2023-07-08T02:21:51;11.83;;;7.20;;
12332;SDS011;6232;48.094;11.288;2023-07-08T02:24:37;9.77;;;6.80;;
12332;SDS011;6232;48.094;11.288;2023-07-08T02:27:23;13.33;;;7.30;;
12332;SDS011;6232;48.094;11.288;2023-07-08T02:30:08;12.90;;;6.60;;
12332;SDS011;6232;48.094;11.288;2023-07-08T02:32:54;14.50;;;7.43;;
12332;SDS011;6232;48.094;11.288;2023-07-08T02:35:43;11.73;;;6.87;;
12332;SDS011;6232;48.094;11.288;2023-07-08T02:38:29;10.13;;;6.60;;
12332;SDS011;6232;48.094;11.288;2023-07-08T02:41:15;10.30;;;7.63;;
12332;SDS011;6232;48.094;11.288;2023-07-08T02:44:01;10.57;;;6.73;;
12332;SDS011;6232;48.094;11.288;2023-07-08T02:46:47;13.63;;;7.77;;
12332;SDS011;6232;48.094;11.288;2023-07-08T02:49:32;10.50;;;6.50;;
12332;SDS011;6232;48.094;11.288;2023-07-08T02:52:18;11.87;;;7.70;;
12332;SDS011;6232;48.094;11.288;2023-07-08T02:55:03;10.57;;;6.70;;
12332;SDS011;6232;48.094;11.288;2023-07-08T02:57:49;10.60;;;6.70;;
12332;SDS011;6232;48.094;11.288;2023-07-08T03:00:35;13.03;;;7.17;;
12332;SDS011;6232;48.094;11.288;2023-07-08T03:03:22;16.33;;;7.70;;
12332;SDS011;6232;48.094;11.288;2023-07-08T03:06:08;15.13;;;7.50;;
12332;SDS011;6232;48.094;11.288;2023-07-08T03:08:54;10.33;;;6.80;;
12332;SDS011;6232;48.094;11.288;2023-07-08T03:11:39;12.30;;;6.30;;
12332;SDS011;6232;48.094;11.288;2023-07-08T03:14:25;11.20;;;6.67;;
12332;SDS011;6232;48.094;11.288;2023-07-08T03:17:10;8.57;;;6.87;;
12332;SDS011;6232;48.094;11.288;2023-07-08T03:19:56;12.40;;;6.77;;
12332;SDS011;6232;48.094;11.288;2023-07-08T03:22:42;13.97;;;6.67;;
12332;SDS011;6232;48.094;11.288;2023-07-08T03:25:27;7.97;;;6.70;;
12332;SDS011;6232;48.094;11.288;2023-07-08T03:28:13;10.90;;;8.00;;
12332;SDS011;6232;48.094;11.288;2023-07-08T03:31:00;13.90;;;6.87;;
12332;SDS011;6232;48.094;11.288;2023-07-08T03:33:45;8.30;;;6.20;;
12332;SDS011;6232;48.094;11.288;2023-07-08T03:36:31;10.23;;;7.30;;
12332;SDS011;6232;48.094;11.288;2023-07-08T03:39:17;13.83;;;6.90;;
12332;SDS011;6232;48.094;11.288;2023-07-08T03:42:03;15.10;;;6.70;;
12332;SDS011;6232;48.094;11.288;2023-07-08T03:44:49;9.87;;;6.87;;
12332;SDS011;6232;48.094;11.288;2023-07-08T03:47:35;10.23;;;6.87;;
12332;SDS011;6232;48.094;11.288;2023-07-08T03:50:21;12.47;;;7.47;;
12332;SDS011;6232;48.094;11.288;2023-07-08T03:53:08;15.23;;;7.40;;
12332;SDS011;6232;48.094;11.288;2023-07-08T03:55:54;13.10;;;6.90;;
12332;SDS011;6232;48.094;11.288;2023-07-08T03:58:39;10.97;;;6.97;;
12332;SDS011;6232;48.094;11.288;2023-07-08T04:01:25;11.03;;;7.33;;
12332;SDS011;6232;48.094;11.288;2023-07-08T04:04:12;11.37;;;6.83;;
12332;SDS011;6232;48.094;11.288;2023-07-08T04:06:57;11.63;;;7.20;;
12332;SDS011;6232;48.094;11.288;2023-07-08T04:09:43;10.77;;;7.10;;
12332;SDS011;6232;48.094;11.288;2023-07-08T04:12:35;13.43;;;7.37;;
12332;SDS011;6232;48.094;11.288;2023-07-08T04:15:20;11.27;;;9.00;;
12332;SDS011;6232;48.094;11.288;2023-07-08T04:18:10;17.57;;;10.17;;
12332;SDS011;6232;48.094;11.288;2023-07-08T04:20:57;12.70;;;8.80;;
12332;SDS011;6232;48.094;11.288;2023-07-08T04:23:42;13.20;;;8.37;;
12332;SDS011;6232;48.094;11.288;2023-07-08T04:26:28;11.23;;;8.20;;
12332;SDS011;6232;48.094;11.288;2023-07-08T04:29:18;13.77;;;8.77;;
12332;SDS011;6232;48.094;11.288;2023-07-08T04:32:04;14.43;;;8.47;;
12332;SDS011;6232;48.094;11.288;2023-07-08T04:34:50;11.13;;;7.80;;
12332;SDS011;6232;48.094;11.288;2023-07-08T04:37:36;13.73;;;8.10;;
12332;SDS011;6232;48.094;11.288;2023-07-08T04:40:22;13.67;;;8.80;;
12332;SDS011;6232;48.094;11.288;2023-07-08T04:43:08;11.23;;;6.67;;
12332;SDS011;6232;48.094;11.288;2023-07-08T04:45:57;12.53;;;8.10;;
12332;SDS011;6232;48.094;11.288;2023-07-08T04:48:43;13.93;;;7.50;;
12332;SDS011;6232;48.094;11.288;2023-07-08T04:51:29;13.47;;;7.60;;
12332;SDS011;6232;48.094;11.288;2023-07-08T04:54:14;19.70;;;7.83;;
12332;SDS011;6232;48.094;11.288;2023-07-08T04:57:00;10.17;;;7.00;;
12332;SDS011;6232;48.094;11.288;2023-07-08T04:59:46;11.33;;;7.57;;
12332;SDS011;6232;48.094;11.288;2023-07-08T05:02:31;19.67;;;8.23;;
12332;SDS011;6232;48.094;11.288;2023-07-08T05:05:17;9.87;;;7.77;;
12332;SDS011;6232;48.094;11.288;2023-07-08T05:08:02;14.80;;;8.07;;
12332;SDS011;6232;48.094;11.288;2023-07-08T05:10:48;14.10;;;7.63;;
12332;SDS011;6232;48.094;11.288;2023-07-08T05:13:34;13.10;;;7.20;;
12332;SDS011;6232;48.094;11.288;2023-07-08T05:16:19;11.37;;;7.40;;
12332;SDS011;6232;48.094;11.288;2023-07-08T05:19:05;11.13;;;7.30;;
12332;SDS011;6232;48.094;11.288;2023-07-08T05:21:51;11.70;;;7.37;;
12332;SDS011;6232;48.094;11.288;2023-07-08T05:24:38;12.63;;;7.70;;
12332;SDS011;6232;48.094;11.288;2023-07-08T05:27:24;9.50;;;7.27;;
12332;SDS011;6232;48.094;11.288;2023-07-08T05:30:11;11.80;;;7.70;;
12332;SDS011;6232;48.094;11.288;2023-07-08T05:32:58;10.43;;;7.43;;
12332;SDS011;6232;48.094;11.288;2023-07-08T05:35:45;11.20;;;7.43;;
12332;SDS011;6232;48.094;11.288;2023-07-08T05:38:30;10.90;;;6.67;;
12332;SDS011;6232;48.094;11.288;2023-07-08T05:41:16;12.53;;;7.83;;
12332;SDS011;6232;48.094;11.288;2023-07-08T05:44:02;11.63;;;7.63;;
12332;SDS011;6232;48.094;11.288;2023-07-08T05:46:47;11.40;;;7.33;;
12332;SDS011;6232;48.094;11.288;2023-07-08T05:49:36;11.53;;;7.40;;
12332;SDS011;6232;48.094;11.288;2023-07-08T05:52:22;12.43;;;7.97;;
12332;SDS011;6232;48.094;11.288;2023-07-08T05:55:07;19.13;;;8.43;;
12332;SDS011;6232;48.094;11.288;2023-07-08T05:57:53;10.67;;;7.33;;
12332;SDS011;6232;48.094;11.288;2023-07-08T06:00:39;11.13;;;7.27;;
12332;SDS011;6232;48.094;11.288;2023-07-08T06:03:25;11.03;;;7.50;;
12332;SDS011;6232;48.094;11.288;2023-07-08T06:06:10;10.60;;;7.07;;
12332;SDS011;6232;48.094;11.288;2023-07-08T06:08:56;12.10;;;7.83;;
12332;SDS011;6232;48.094;11.288;2023-07-08T06:11:42;11.53;;;7.10;;
12332;SDS011;6232;48.094;11.288;2023-07-08T06:14:27;11.37;;;7.63;;
12332;SDS011;6232;48.094;11.288;2023-07-08T06:17:13;10.60;;;7.33;;
12332;SDS011;6232;48.094;11.288;2023-07-08T06:19:59;13.77;;;7.67;;
12332;SDS011;6232;48.094;11.288;2023-07-08T06:22:45;10.27;;;7.60;;
12332;SDS011;6232;48.094;11.288;2023-07-08T06:25:31;13.30;;;7.53;;
12332;SDS011;6232;48.094;11.288;2023-07-08T06:28:17;11.80;;;7.40;;
12332;SDS011;6232;48.094;11.288;2023-07-08T06:31:02;13.97;;;7.90;;
12332;SDS011;6232;48.094;11.288;2023-07-08T06:33:48;11.00;;;7.90;;
12332;SDS011;6232;48.094;11.288;2023-07-08T06:36:34;11.33;;;7.33;;
12332;SDS011;6232;48.094;11.288;2023-07-08T06:39:20;12.83;;;8.43;;
12332;SDS011;6232;48.094;11.288;2023-07-08T06:42:06;11.17;;;7.13;;
12332;SDS011;6232;48.094;11.288;2023-07-08T06:44:51;10.53;;;7.43;;
12332;SDS011;6232;48.094;11.288;2023-07-08T06:47:37;11.67;;;7.00;;
12332;SDS011;6232;48.094;11.288;2023-07-08T06:50:23;14.23;;;6.67;;
12332;SDS011;6232;48.094;11.288;2023-07-08T06:53:08;10.77;;;7.40;;
12332;SDS011;6232;48.094;11.288;2023-07-08T06:55:54;11.40;;;6.50;;
12332;SDS011;6232;48.094;11.288;2023-07-08T06:58:40;10.93;;;6.83;;
12332;SDS011;6232;48.094;11.288;2023-07-08T07:01:26;11.10;;;6.77;;
12332;SDS011;6232;48.094;11.288;2023-07-08T07:04:11;9.90;;;7.03;;
12332;SDS011;6232;48.094;11.288;2023-07-08T07:06:57;10.30;;;7.83;;
12332;SDS011;6232;48.094;11.288;2023-07-08T07:09:43;9.10;;;6.80;;
12332;SDS011;6232;48.094;11.288;2023-07-08T07:12:28;11.53;;;6.90;;
12332;SDS011;6232;48.094;11.288;2023-07-08T07:15:14;10.80;;;7.50;;
12332;SDS011;6232;48.094;11.288;2023-07-08T07:18:00;11.43;;;6.90;;
12332;SDS011;6232;48.094;11.288;2023-07-08T07:20:49;10.43;;;7.27;;
12332;SDS011;6232;48.094;11.288;2023-07-08T07:23:35;11.73;;;7.20;;
12332;SDS011;6232;48.094;11.288;2023-07-08T07:26:21;18.60;;;6.97;;
12332;SDS011;6232;48.094;11.288;2023-07-08T07:29:06;11.47;;;7.00;;
12332;SDS011;6232;48.094;11.288;2023-07-08T07:31:52;11.33;;;6.73;;
12332;SDS011;6232;48.094;11.288;2023-07-08T07:34:40;11.57;;;6.37;;
12332;SDS011;6232;48.094;11.288;2023-07-08T07:37:26;12.33;;;7.40;;
12332;SDS011;6232;48.094;11.288;2023-07-08T07:40:12;11.80;;;6.93;;
12332;SDS011;6232;48.094;11.288;2023-07-08T07:42:59;10.53;;;6.70;;
12332;SDS011;6232;48.094;11.288;2023-07-08T07:45:49;10.07;;;6.77;;
12332;SDS011;6232;48.094;11.288;2023-07-08T07:48:34;12.30;;;7.93;;
12332;SDS011;6232;48.094;11.288;2023-07-08T07:51:20;17.40;;;9.00;;
12332;SDS011;6232;48.094;11.288;2023-07-08T07:54:06;12.90;;;7.13;;
12332;SDS011;6232;48.094;11.288;2023-07-08T07:56:51;10.40;;;6.13;;
12332;SDS011;6232;48.094;11.288;2023-07-08T07:59:37;12.07;;;6.30;;
12332;SDS011;6232;48.094;11.288;2023-07-08T08:02:23;14.83;;;6.87;;
12332;SDS011;6232;48.094;11.288;2023-07-08T08:05:09;9.70;;;6.87;;
12332;SDS011;6232;48.094;11.288;2023-07-08T08:07:55;9.00;;;6.60;;
12332;SDS011;6232;48.094;11.288;2023-07-08T08:10:42;8.97;;;6.57;;
12332;SDS011;6232;48.094;11.288;2023-07-08T08:13:27;9.63;;;6.40;;
12332;SDS011;6232;48.094;11.288;2023-07-08T08:16:13;9.47;;;7.00;;
12332;SDS011;6232;48.094;11.288;2023-07-08T08:18:59;11.10;;;6.90;;
12332;SDS011;6232;48.094;11.288;2023-07-08T08:21:44;9.83;;;6.70;;
12332;SDS011;6232;48.094;11.288;2023-07-08T08:24:30;11.77;;;6.70;;
12332;SDS011;6232;48.094;11.288;2023-07-08T08:27:15;8.93;;;6.17;;
12332;SDS011;6232;48.094;11.288;2023-07-08T08:30:01;9.30;;;5.90;;
12332;SDS011;6232;48.094;11.288;2023-07-08T08:32:47;12.50;;;7.37;;
12332;SDS011;6232;48.094;11.288;2023-07-08T08:35:32;11.93;;;7.23;;
12332;SDS011;6232;48.094;11.288;2023-07-08T08:38:18;10.93;;;6.80;;
12332;SDS011;6232;48.094;11.288;2023-07-08T08:41:08;10.83;;;6.77;;
12332;SDS011;6232;48.094;11.288;2023-07-08T08:43:57;9.50;;;7.80;;
12332;SDS011;6232;48.094;11.288;2023-07-08T08:50:03;9.60;;;6.53;;
12332;SDS011;6232;48.094;11.288;2023-07-08T08:52:53;8.37;;;6.67;;
12332;SDS011;6232;48.094;11.288;2023-07-08T08:55:40;13.30;;;6.40;;
12332;SDS011;6232;48.094;11.288;2023-07-08T08:58:37;10.37;;;6.37;;
12332;SDS011;6232;48.094;11.288;2023-07-08T09:01:24;9.50;;;6.97;;
12332;SDS011;6232;48.094;11.288;2023-07-08T09:04:17;11.17;;;6.90;;
12332;SDS011;6232;48.094;11.288;2023-07-08T09:07:06;9.53;;;6.50;;
12332;SDS011;6232;48.094;11.288;2023-07-08T09:10:03;11.17;;;6.87;;
12332;SDS011;6232;48.094;11.288;2023-07-08T09:12:50;15.70;;;7.30;;
12332;SDS011;6232;48.094;11.288;2023-07-08T09:15:36;10.53;;;6.50;;
12332;SDS011;6232;48.094;11.288;2023-07-08T09:18:25;11.80;;;6.13;;
12332;SDS011;6232;48.094;11.288;2023-07-08T09:21:19;10.30;;;7.00;;
12332;SDS011;6232;48.094;11.288;2023-07-08T09:24:08;7.93;;;6.03;;
12332;SDS011;6232;48.094;11.288;2023-07-08T09:26:56;9.13;;;7.20;;
12332;SDS011;6232;48.094;11.288;2023-07-08T09:29:49;15.53;;;6.63;;
12332;SDS011;6232;48.094;11.288;2023-07-08T09:32:35;9.47;;;7.10;;
12332;SDS011;6232;48.094;11.288;2023-07-08T09:35:24;8.70;;;5.93;;
12332;SDS011;6232;48.094;11.288;2023-07-08T09:38:15;11.00;;;6.17;;
12332;SDS011;6232;48.094;11.288;2023-07-08T09:41:04;11.17;;;7.47;;
12332;SDS011;6232;48.094;11.288;2023-07-08T09:44:06;10.97;;;6.40;;
12332;SDS011;6232;48.094;11.288;2023-07-08T09:46:56;9.27;;;5.47;;
12332;SDS011;6232;48.094;11.288;2023-07-08T09:49:42;9.00;;;5.93;;
12332;SDS011;6232;48.094;11.288;2023-07-08T09:52:29;6.53;;;5.03;;
12332;SDS011;6232;48.094;11.288;2023-07-08T09:55:16;7.60;;;5.60;;
12332;SDS011;6232;48.094;11.288;2023-07-08T09:58:01;5.50;;;4.00;;
12332;SDS011;6232;48.094;11.288;2023-07-08T10:00:50;10.73;;;4.80;;
12332;SDS011;6232;48.094;11.288;2023-07-08T10:03:36;6.73;;;4.30;;
12332;SDS011;6232;48.094;11.288;2023-07-08T10:06:24;8.30;;;4.60;;
12332;SDS011;6232;48.094;11.288;2023-07-08T10:09:11;6.50;;;4.53;;
12332;SDS011;6232;48.094;11.288;2023-07-08T10:12:00;7.70;;;4.90;;
12332;SDS011;6232;48.094;11.288;2023-07-08T10:14:48;5.80;;;4.70;;
12332;SDS011;6232;48.094;11.288;2023-07-08T10:17:36;6.40;;;4.77;;
12332;SDS011;6232;48.094;11.288;2023-07-08T10:20:23;6.00;;;4.73;;
12332;SDS011;6232;48.094;11.288;2023-07-08T10:23:23;10.53;;;3.87;;
12332;SDS011;6232;48.094;11.288;2023-07-08T10:26:13;5.60;;;4.80;;
12332;SDS011;6232;48.094;11.288;2023-07-08T10:29:51;6.10;;;4.67;;
12332;SDS011;6232;48.094;11.288;2023-07-08T10:32:16;7.63;;;4.80;;
12332;SDS011;6232;48.094;11.288;2023-07-08T10:38:09;6.73;;;4.43;;
12332;SDS011;6232;48.094;11.288;2023-07-08T10:41:08;8.20;;;4.93;;
12332;SDS011;6232;48.094;11.288;2023-07-08T10:44:04;6.90;;;4.90;;
12332;SDS011;6232;48.094;11.288;2023-07-08T10:47:02;14.80;;;5.00;;
12332;SDS011;6232;48.094;11.288;2023-07-08T10:49:55;5.77;;;4.50;;
12332;SDS011;6232;48.094;11.288;2023-07-08T10:55:37;5.03;;;4.00;;
12332;SDS011;6232;48.094;11.288;2023-07-08T11:04:29;6.93;;;4.17;;
12332;SDS011;6232;48.094;11.288;2023-07-08T11:07:28;7.73;;;4.20;;
12332;SDS011;6232;48.094;11.288;2023-07-08T11:13:11;5.60;;;3.90;;
12332;SDS011;6232;48.094;11.288;2023-07-08T11:16:01;6.00;;;4.10;;
12332;SDS011;6232;48.094;11.288;2023-07-08T11:18:53;9.70;;;3.95;;
12332;SDS011;6232;48.094;11.288;2023-07-08T11:21:42;4.00;;;3.47;;
12332;SDS011;6232;48.094;11.288;2023-07-08T11:24:49;5.28;;;3.40;;
12332;SDS011;6232;48.094;11.288;2023-07-08T11:27:36;4.40;;;3.80;;
12332;SDS011;6232;48.094;11.288;2023-07-08T11:30:24;5.15;;;3.53;;
12332;SDS011;6232;48.094;11.288;2023-07-08T11:33:11;6.53;;;3.72;;
12332;SDS011;6232;48.094;11.288;2023-07-08T11:35:57;4.85;;;4.38;;
12332;SDS011;6232;48.094;11.288;2023-07-08T11:38:53;4.85;;;4.00;;
12332;SDS011;6232;48.094;11.288;2023-07-08T11:41:39;5.05;;;4.18;;
12332;SDS011;6232;48.094;11.288;2023-07-08T11:44:24;6.82;;;3.78;;
12332;SDS011;6232;48.094;11.288;2023-07-08T11:47:13;4.72;;;3.67;;
12332;SDS011;6232;48.094;11.288;2023-07-08T11:50:00;8.00;;;3.97;;
12332;SDS011;6232;48.094;11.288;2023-07-08T11:52:54;4.88;;;3.80;;
12332;SDS011;6232;48.094;11.288;2023-07-08T11:58:29;4.78;;;3.55;;
12332;SDS011;6232;48.094;11.288;2023-07-08T12:09:57;12.80;;;4.03;;
12332;SDS011;6232;48.094;11.288;2023-07-08T12:12:46;5.38;;;4.05;;
12332;SDS011;6232;48.094;11.288;2023-07-08T12:15:32;6.63;;;3.50;;
12332;SDS011;6232;48.094;11.288;2023-07-08T12:21:04;7.65;;;4.63;;
12332;SDS011;6232;48.094;11.288;2023-07-08T12:23:50;4.80;;;3.53;;
12332;SDS011;6232;48.094;11.288;2023-07-08T12:26:35;6.20;;;3.97;;
12332;SDS011;6232;48.094;11.288;2023-07-08T12:29:21;8.45;;;4.30;;
12332;SDS011;6232;48.094;11.288;2023-07-08T12:32:08;7.47;;;3.58;;
12332;SDS011;6232;48.094;11.288;2023-07-08T12:34:56;4.78;;;4.07;;
12332;SDS011;6232;48.094;11.288;2023-07-08T12:37:42;4.60;;;3.40;;
12332;SDS011;6232;48.094;11.288;2023-07-08T12:40:28;6.63;;;4.43;;
12332;SDS011;6232;48.094;11.288;2023-07-08T12:43:14;5.40;;;3.65;;
12332;SDS011;6232;48.094;11.288;2023-07-08T12:46:01;5.63;;;3.25;;
12332;SDS011;6232;48.094;11.288;2023-07-08T12:48:48;4.45;;;3.45;;
12332;SDS011;6232;48.094;11.288;2023-07-08T12:51:34;4.45;;;3.53;;
12332;SDS011;6232;48.094;11.288;2023-07-08T12:54:20;2.63;;;2.30;;
12332;SDS011;6232;48.094;11.288;2023-07-08T12:57:07;7.43;;;3.75;;
12332;SDS011;6232;48.094;11.288;2023-07-08T12:59:54;4.05;;;3.50;;
12332;SDS011;6232;48.094;11.288;2023-07-08T13:02:39;5.70;;;3.65;;
12332;SDS011;6232;48.094;11.288;2023-07-08T13:05:25;4.47;;;3.20;;
12332;SDS011;6232;48.094;11.288;2023-07-08T13:08:12;6.03;;;4.07;;
12332;SDS011;6232;48.094;11.288;2023-07-08T13:10:58;4.47;;;3.50;;
12332;SDS011;6232;48.094;11.288;2023-07-08T13:13:47;5.68;;;3.53;;
12332;SDS011;6232;48.094;11.288;2023-07-08T13:16:34;3.90;;;3.45;;
12332;SDS011;6232;48.094;11.288;2023-07-08T13:19:20;4.40;;;3.35;;
12332;SDS011;6232;48.094;11.288;2023-07-08T13:22:08;5.68;;;3.28;;
12332;SDS011;6232;48.094;11.288;2023-07-08T13:25:01;4.20;;;3.28;;
12332;SDS011;6232;48.094;11.288;2023-07-08T13:28:36;4.82;;;3.10;;
12332;SDS011;6232;48.094;11.288;2023-07-08T13:30:57;4.70;;;3.45;;
12332;SDS011;6232;48.094;11.288;2023-07-08T13:33:51;7.45;;;3.25;;
12332;SDS011;6232;48.094;11.288;2023-07-08T13:36:39;4.95;;;3.65;;
12332;SDS011;6232;48.094;11.288;2023-07-08T13:39:26;6.40;;;4.22;;
12332;SDS011;6232;48.094;11.288;2023-07-08T13:42:13;8.27;;;3.97;;
12332;SDS011;6232;48.094;11.288;2023-07-08T13:44:58;3.75;;;3.45;;
12332;SDS011;6232;48.094;11.288;2023-07-08T13:47:44;5.57;;;3.50;;
12332;SDS011;6232;48.094;11.288;2023-07-08T13:50:33;4.88;;;3.67;;
12332;SDS011;6232;48.094;11.288;2023-07-08T13:53:23;4.30;;;3.90;;
12332;SDS011;6232;48.094;11.288;2023-07-08T13:56:12;4.45;;;3.50;;
12332;SDS011;6232;48.094;11.288;2023-07-08T13:59:03;3.72;;;3.35;;
12332;SDS011;6232;48.094;11.288;2023-07-08T14:01:50;5.40;;;4.20;;
12332;SDS011;6232;48.094;11.288;2023-07-08T14:04:36;4.10;;;3.70;;
12332;SDS011;6232;48.094;11.288;2023-07-08T14:07:24;5.40;;;4.25;;
12332;SDS011;6232;48.094;11.288;2023-07-08T14:10:13;6.75;;;4.55;;
12332;SDS011;6232;48.094;11.288;2023-07-08T14:12:58;6.97;;;3.75;;
12332;SDS011;6232;48.094;11.288;2023-07-08T14:15:44;8.05;;;3.45;;
12332;SDS011;6232;48.094;11.288;2023-07-08T14:18:31;4.75;;;3.63;;
12332;SDS011;6232;48.094;11.288;2023-07-08T14:21:17;6.95;;;3.47;;
12332;SDS011;6232;48.094;11.288;2023-07-08T14:24:08;4.05;;;3.65;;
12332;SDS011;6232;48.094;11.288;2023-07-08T14:26:55;3.50;;;3.20;;
12332;SDS011;6232;48.094;11.288;2023-07-08T14:29:40;6.90;;;3.78;;
12332;SDS011;6232;48.094;11.288;2023-07-08T14:32:27;4.90;;;4.22;;
12332;SDS011;6232;48.094;11.288;2023-07-08T14:35:16;9.88;;;4.55;;
12332;SDS011;6232;48.094;11.288;2023-07-08T14:38:20;5.72;;;4.15;;
12332;SDS011;6232;48.094;11.288;2023-07-08T14:41:09;6.45;;;4.18;;
12332;SDS011;6232;48.094;11.288;2023-07-08T14:43:55;6.47;;;4.30;;
12332;SDS011;6232;48.094;11.288;2023-07-08T14:46:40;4.18;;;3.78;;
12332;SDS011;6232;48.094;11.288;2023-07-08T14:49:26;5.10;;;4.30;;
12332;SDS011;6232;48.094;11.288;2023-07-08T14:52:12;5.18;;;4.20;;
12332;SDS011;6232;48.094;11.288;2023-07-08T14:54:58;5.03;;;3.80;;
12332;SDS011;6232;48.094;11.288;2023-07-08T14:57:44;4.50;;;4.00;;
12332;SDS011;6232;48.094;11.288;2023-07-08T15:00:31;5.18;;;3.97;;
12332;SDS011;6232;48.094;11.288;2023-07-08T15:03:16;7.32;;;4.18;;
12332;SDS011;6232;48.094;11.288;2023-07-08T15:06:02;8.27;;;4.40;;
12332;SDS011;6232;48.094;11.288;2023-07-08T15:08:48;6.43;;;3.70;;
12332;SDS011;6232;48.094;11.288;2023-07-08T15:11:33;5.25;;;4.15;;
12332;SDS011;6232;48.094;11.288;2023-07-08T15:14:22;6.60;;;4.53;;
12332;SDS011;6232;48.094;11.288;2023-07-08T15:17:15;5.78;;;4.00;;
12332;SDS011;6232;48.094;11.288;2023-07-08T15:20:07;4.40;;;4.00;;
12332;SDS011;6232;48.094;11.288;2023-07-08T15:22:53;6.93;;;3.80;;
12332;SDS011;6232;48.094;11.288;2023-07-08T15:25:40;7.10;;;4.32;;
12332;SDS011;6232;48.094;11.288;2023-07-08T15:28:39;8.63;;;4.85;;
12332;SDS011;6232;48.094;11.288;2023-07-08T15:31:33;6.18;;;3.50;;
12332;SDS011;6232;48.094;11.288;2023-07-08T15:34:20;4.60;;;3.65;;
12332;SDS011;6232;48.094;11.288;2023-07-08T15:37:06;4.20;;;3.33;;
12332;SDS011;6232;48.094;11.288;2023-07-08T15:39:51;6.00;;;3.33;;
12332;SDS011;6232;48.094;11.288;2023-07-08T15:42:37;5.55;;;3.78;;
12332;SDS011;6232;48.094;11.288;2023-07-08T15:45:24;7.65;;;4.13;;
12332;SDS011;6232;48.094;11.288;2023-07-08T15:48:16;8.90;;;4.03;;
12332;SDS011;6232;48.094;11.288;2023-07-08T15:51:02;7.13;;;4.13;;
12332;SDS011;6232;48.094;11.288;2023-07-08T15:53:48;6.67;;;4.67;;
12332;SDS011;6232;48.094;11.288;2023-07-08T15:56:33;7.73;;;4.50;;
12332;SDS011;6232;48.094;11.288;2023-07-08T15:59:20;4.50;;;3.10;;
12332;SDS011;6232;48.094;11.288;2023-07-08T16:02:24;14.60;;;4.63;;
12332;SDS011;6232;48.094;11.288;2023-07-08T16:05:10;6.40;;;4.50;;
12332;SDS011;6232;48.094;11.288;2023-07-08T16:07:56;7.20;;;4.97;;
12332;SDS011;6232;48.094;11.288;2023-07-08T16:10:41;6.03;;;3.63;;
12332;SDS011;6232;48.094;11.288;2023-07-08T16:13:28;6.77;;;4.23;;
12332;SDS011;6232;48.094;11.288;2023-07-08T16:16:15;9.23;;;4.83;;
12332;SDS011;6232;48.094;11.288;2023-07-08T16:19:00;6.77;;;3.67;;
12332;SDS011;6232;48.094;11.288;2023-07-08T16:21:46;10.73;;;9.73;;
12332;SDS011;6232;48.094;11.288;2023-07-08T16:24:35;11.63;;;8.83;;
12332;SDS011;6232;48.094;11.288;2023-07-08T16:27:20;5.87;;;4.10;;
12332;SDS011;6232;48.094;11.288;2023-07-08T16:30:07;5.27;;;3.93;;
12332;SDS011;6232;48.094;11.288;2023-07-08T16:32:54;6.37;;;3.67;;
12332;SDS011;6232;48.094;11.288;2023-07-08T16:35:39;5.20;;;3.20;;
12332;SDS011;6232;48.094;11.288;2023-07-08T16:38:26;6.50;;;4.73;;
12332;SDS011;6232;48.094;11.288;2023-07-08T16:41:17;8.50;;;3.70;;
12332;SDS011;6232;48.094;11.288;2023-07-08T16:44:08;8.17;;;3.80;;
12332;SDS011;6232;48.094;11.288;2023-07-08T16:46:54;8.07;;;4.10;;
12332;SDS011;6232;48.094;11.288;2023-07-08T16:49:41;6.53;;;4.73;;
12332;SDS011;6232;48.094;11.288;2023-07-08T16:52:27;6.40;;;5.60;;
12332;SDS011;6232;48.094;11.288;2023-07-08T16:55:14;6.73;;;5.10;;
12332;SDS011;6232;48.094;11.288;2023-07-08T16:58:00;6.37;;;3.93;;
12332;SDS011;6232;48.094;11.288;2023-07-08T17:00:46;7.23;;;3.43;;
12332;SDS011;6232;48.094;11.288;2023-07-08T17:03:31;7.60;;;3.87;;
12332;SDS011;6232;48.094;11.288;2023-07-08T17:06:19;5.70;;;4.23;;
12332;SDS011;6232;48.094;11.288;2023-07-08T17:09:04;5.80;;;3.57;;
12332;SDS011;6232;48.094;11.288;2023-07-08T17:11:52;5.87;;;4.10;;
12332;SDS011;6232;48.094;11.288;2023-07-08T17:14:38;6.63;;;3.80;;
12332;SDS011;6232;48.094;11.288;2023-07-08T17:17:23;5.57;;;3.67;;